createdAt,value
2023-05-22T00:01:56.824Z,15.36
2023-05-22T00:04:24.065Z,15.21
2023-05-22T00:06:50.999Z,15.17
2023-05-22T00:09:18.065Z,15.15
2023-05-22T00:11:45.146Z,15.13
2023-05-22T00:14:13.778Z,15.12
2023-05-22T00:16:41.373Z,15.09
2023-05-22T00:19:13.402Z,15.03
2023-05-22T00:22:06.179Z,15.03
2023-05-22T00:24:36.248Z,14.99
2023-05-22T00:27:03.194Z,14.96
2023-05-22T00:29:30.141Z,14.92
2023-05-22T00:31:57.566Z,14.89
2023-05-22T00:34:24.552Z,14.87
2023-05-22T00:36:51.388Z,14.84
2023-05-22T00:39:18.335Z,14.80
2023-05-22T00:41:46.058Z,14.78
2023-05-22T00:44:13.270Z,14.76
2023-05-22T00:46:40.965Z,14.73
2023-05-22T00:49:07.887Z,14.71
2023-05-22T00:51:34.759Z,14.70
2023-05-22T00:54:01.741Z,14.69
2023-05-22T00:56:29.273Z,14.68
2023-05-22T00:58:56.401Z,14.68
2023-05-22T01:01:23.440Z,14.68
2023-05-22T01:03:50.915Z,14.62
2023-05-22T01:06:18.714Z,14.59
2023-05-22T01:08:45.614Z,14.56
2023-05-22T01:11:18.316Z,14.56
2023-05-22T01:14:04.511Z,14.56
2023-05-22T01:17:00.163Z,14.55
2023-05-22T01:23:39.142Z,14.53
2023-05-22T01:26:12.838Z,14.53
2023-05-22T01:28:56.832Z,14.60
2023-05-22T01:31:27.678Z,14.67
2023-05-22T01:33:57.273Z,14.66
2023-05-22T01:36:26.308Z,14.63
2023-05-22T01:38:53.198Z,14.60
2023-05-22T01:41:20.206Z,14.56
2023-05-22T01:43:47.423Z,14.36
2023-05-22T01:46:14.685Z,14.27
2023-05-22T01:48:41.876Z,14.22
2023-05-22T01:51:18.425Z,14.19
2023-05-22T01:54:06.273Z,14.16
2023-05-22T01:56:57.246Z,14.13
2023-05-22T01:59:33.128Z,14.09
2023-05-22T02:02:04.047Z,14.05
2023-05-22T02:04:31.170Z,14.03
2023-05-22T02:06:58.490Z,14.01
2023-05-22T02:09:25.939Z,14.01
2023-05-22T02:11:52.847Z,13.99
2023-05-22T02:14:19.784Z,13.98
2023-05-22T02:16:47.875Z,13.98
2023-05-22T02:19:27.227Z,13.97
2023-05-22T02:21:57.333Z,13.96
2023-05-22T02:24:24.201Z,13.94
2023-05-22T02:26:51.567Z,13.92
2023-05-22T02:29:19.076Z,13.91
2023-05-22T02:31:46.121Z,13.91
2023-05-22T02:34:13.037Z,13.90
2023-05-22T02:36:40.960Z,13.89
2023-05-22T02:39:08.836Z,13.89
2023-05-22T02:41:35.680Z,13.89
2023-05-22T02:44:12.070Z,13.89
2023-05-22T02:46:39.036Z,13.91
2023-05-22T02:49:06.099Z,13.92
2023-05-22T02:51:33.297Z,13.94
2023-05-22T02:54:00.209Z,13.97
2023-05-22T02:56:29.038Z,14.01
2023-05-22T02:58:57.260Z,14.10
2023-05-22T03:01:26.632Z,14.20
2023-05-22T03:03:55.085Z,14.10
2023-05-22T03:06:23.352Z,14.08
2023-05-22T03:08:50.885Z,14.11
2023-05-22T03:11:17.776Z,14.13
2023-05-22T03:13:45.009Z,14.15
2023-05-22T03:16:12.014Z,14.18
2023-05-22T03:18:41.893Z,14.19
2023-05-22T03:21:11.934Z,14.21
2023-05-22T03:23:44.937Z,14.25
2023-05-22T03:26:14.748Z,14.29
2023-05-22T03:28:41.903Z,14.31
2023-05-22T03:31:09.515Z,14.34
2023-05-22T03:33:45.886Z,14.39
2023-05-22T03:36:12.905Z,14.44
2023-05-22T03:38:40.099Z,14.50
2023-05-22T03:41:07.962Z,14.54
2023-05-22T03:43:34.865Z,14.58
2023-05-22T03:46:01.819Z,14.61
2023-05-22T03:48:28.785Z,14.64
2023-05-22T03:51:20.609Z,14.67
2023-05-22T03:53:50.411Z,14.76
2023-05-22T03:56:17.246Z,14.78
2023-05-22T03:58:44.154Z,14.81
2023-05-22T04:01:11.423Z,14.84
2023-05-22T04:03:38.382Z,14.90
2023-05-22T04:06:05.834Z,15.09
2023-05-22T04:08:32.799Z,15.19
2023-05-22T04:11:00.686Z,15.14
2023-05-22T04:13:27.739Z,15.11
2023-05-22T04:15:54.998Z,15.13
2023-05-22T04:18:21.858Z,15.18
2023-05-22T04:20:51.816Z,15.22
2023-05-22T04:23:19.177Z,15.26
2023-05-22T04:25:48.031Z,15.28
2023-05-22T04:28:17.747Z,15.31
2023-05-22T04:30:46.511Z,15.35
2023-05-22T04:33:13.708Z,15.38
2023-05-22T04:35:44.410Z,15.44
2023-05-22T04:38:11.282Z,15.51
2023-05-22T04:40:38.550Z,15.58
2023-05-22T04:43:06.280Z,15.64
2023-05-22T04:45:33.652Z,15.72
2023-05-22T04:48:02.726Z,15.80
2023-05-22T04:50:33.090Z,15.88
2023-05-22T04:53:00.160Z,15.95
2023-05-22T04:55:27.006Z,16.02
2023-05-22T04:57:53.980Z,16.10
2023-05-22T05:00:26.527Z,16.17
2023-05-22T05:02:53.747Z,16.22
2023-05-22T05:05:20.866Z,16.29
2023-05-22T05:07:50.101Z,16.38
2023-05-22T05:10:17.771Z,16.48
2023-05-22T05:12:44.679Z,16.57
2023-05-22T05:15:11.771Z,16.65
2023-05-22T05:17:39.388Z,16.74
2023-05-22T05:20:08.986Z,16.84
2023-05-22T05:22:37.510Z,16.93
2023-05-22T05:25:05.845Z,17.02
2023-05-22T05:27:33.134Z,17.13
2023-05-22T05:30:00.523Z,17.22
2023-05-22T05:32:38.955Z,17.31
2023-05-22T05:35:51.688Z,17.43
2023-05-22T05:38:23.541Z,17.51
2023-05-22T05:40:53.370Z,17.58
2023-05-22T05:43:20.829Z,17.65
2023-05-22T05:46:17.508Z,17.74
2023-05-22T05:48:44.931Z,17.83
2023-05-22T05:51:11.920Z,17.92
2023-05-22T05:53:41.931Z,18.01
2023-05-22T05:56:12.071Z,18.09
2023-05-22T05:58:41.772Z,18.15
2023-05-22T06:01:27.555Z,18.21
2023-05-22T06:03:59.478Z,18.27
2023-05-22T06:06:40.626Z,18.34
2023-05-22T06:09:25.057Z,18.42
2023-05-22T06:12:21.533Z,18.48
2023-05-22T06:14:48.507Z,18.54
2023-05-22T06:18:22.067Z,18.61
2023-05-22T06:20:49.146Z,18.72
2023-05-22T06:35:13.092Z,19.13
2023-05-22T06:37:43.041Z,19.64
2023-05-22T06:40:11.246Z,19.64
2023-05-22T06:43:01.490Z,19.67
2023-05-22T06:45:46.701Z,19.68
2023-05-22T06:48:35.195Z,19.71
2023-05-22T06:51:16.370Z,19.74
2023-05-22T06:53:46.377Z,19.79
2023-05-22T06:56:17.947Z,19.86
2023-05-22T06:58:52.250Z,19.95
2023-05-22T07:01:19.603Z,20.04
2023-05-22T07:03:57.978Z,20.12
2023-05-22T07:06:39.157Z,20.20
2023-05-22T07:09:06.462Z,20.26
2023-05-22T07:11:33.634Z,20.31
2023-05-22T07:14:01.468Z,20.39
2023-05-22T07:16:40.626Z,20.48
2023-05-22T07:19:12.135Z,20.59
2023-05-22T07:21:45.771Z,20.72
2023-05-22T07:24:22.412Z,20.81
2023-05-22T07:26:58.279Z,20.85
2023-05-22T07:30:13.793Z,20.88
2023-05-22T07:32:41.307Z,20.92
2023-05-22T07:35:10.787Z,20.97
2023-05-22T07:38:25.504Z,21.07
2023-05-22T07:41:04.931Z,21.19
2023-05-22T07:44:11.084Z,21.30
2023-05-22T07:46:47.168Z,21.38
2023-05-22T07:49:22.289Z,21.45
2023-05-22T07:51:50.081Z,21.53
2023-05-22T07:54:18.439Z,21.60
2023-05-22T07:56:47.916Z,21.67
2023-05-22T07:59:16.146Z,21.75
2023-05-22T08:01:43.188Z,21.81
2023-05-22T08:04:10.552Z,21.83
2023-05-22T08:06:37.632Z,21.81
2023-05-22T08:09:05.133Z,21.82
2023-05-22T08:11:32.349Z,21.88
2023-05-22T08:13:59.174Z,21.99
2023-05-22T08:16:26.100Z,22.13
2023-05-22T08:18:53.125Z,22.24
2023-05-22T08:21:23.120Z,22.33
2023-05-22T08:23:51.243Z,22.39
2023-05-22T08:26:18.141Z,22.46
2023-05-22T08:28:45.004Z,22.53
2023-05-22T08:31:12.365Z,22.62
2023-05-22T08:33:39.875Z,22.73
2023-05-22T08:36:06.798Z,22.81
2023-05-22T08:38:33.838Z,22.89
2023-05-22T08:41:00.965Z,22.97
2023-05-22T08:43:28.654Z,23.06
2023-05-22T08:46:06.228Z,23.16
2023-05-22T08:48:33.355Z,23.29
2023-05-22T08:51:07.382Z,23.40
2023-05-22T08:53:36.069Z,23.50
2023-05-22T08:56:05.731Z,23.55
2023-05-22T08:58:33.630Z,23.55
2023-05-22T09:01:00.612Z,23.55
2023-05-22T09:03:29.145Z,23.51
2023-05-22T09:05:56.311Z,23.44
2023-05-22T09:08:24.244Z,23.37
2023-05-22T09:10:51.370Z,23.35
2023-05-22T09:13:31.548Z,23.30
2023-05-22T09:16:55.977Z,23.20
2023-05-22T09:19:29.620Z,23.12
2023-05-22T09:22:05.202Z,23.04
2023-05-22T09:24:37.828Z,22.94
2023-05-22T09:27:06.684Z,22.89
2023-05-22T09:29:48.542Z,22.96
2023-05-22T09:32:16.520Z,23.10
2023-05-22T09:34:45.246Z,23.23
2023-05-22T09:37:12.473Z,23.38
2023-05-22T09:39:42.704Z,23.54
2023-05-22T09:42:11.641Z,23.67
2023-05-22T09:44:39.350Z,23.71
2023-05-22T09:47:06.622Z,23.77
2023-05-22T09:49:41.618Z,23.89
2023-05-22T09:52:09.293Z,23.99
2023-05-22T09:54:36.715Z,24.06
2023-05-22T09:57:04.044Z,24.11
2023-05-22T09:59:31.619Z,24.18
2023-05-22T10:01:58.623Z,24.17
2023-05-22T10:04:25.710Z,24.09
2023-05-22T10:06:55.710Z,24.03
2023-05-22T10:09:24.795Z,24.02
2023-05-22T10:11:55.469Z,24.07
2023-05-22T10:14:22.434Z,24.16
2023-05-22T10:16:49.422Z,24.29
2023-05-22T10:19:16.350Z,24.43
2023-05-22T10:21:43.591Z,24.52
2023-05-22T10:24:10.475Z,24.65
2023-05-22T10:26:37.673Z,24.79
2023-05-22T10:29:12.061Z,24.93
2023-05-22T10:32:08.360Z,25.01
2023-05-22T10:35:01.798Z,25.02
2023-05-22T10:37:32.999Z,24.99
2023-05-22T10:40:06.347Z,24.99
2023-05-22T10:42:33.281Z,24.94
2023-05-22T10:45:04.407Z,24.90
2023-05-22T10:47:33.568Z,24.85
2023-05-22T10:50:07.772Z,24.87
2023-05-22T10:52:38.646Z,24.94
2023-05-22T10:55:09.434Z,25.02
2023-05-22T10:57:40.182Z,25.11
2023-05-22T11:00:11.550Z,25.22
2023-05-22T11:02:41.092Z,25.39
2023-05-22T11:05:17.098Z,25.55
2023-05-22T11:07:44.066Z,25.67
2023-05-22T11:10:11.427Z,25.72
2023-05-22T11:12:38.313Z,25.75
2023-05-22T11:15:06.214Z,25.83
2023-05-22T11:17:39.884Z,25.92
2023-05-22T11:20:13.032Z,26.08
2023-05-22T11:22:41.829Z,26.30
2023-05-22T11:25:10.815Z,26.52
2023-05-22T11:39:35.622Z,26.27
2023-05-22T11:42:04.647Z,26.43
2023-05-22T11:44:31.531Z,26.27
2023-05-22T11:46:58.513Z,26.14
2023-05-22T11:49:25.450Z,26.07
2023-05-22T11:51:52.562Z,26.09
2023-05-22T11:54:19.687Z,26.10
2023-05-22T11:56:47.312Z,26.06
2023-05-22T11:59:14.713Z,26.02
2023-05-22T12:01:42.247Z,26.08
2023-05-22T12:04:09.736Z,26.26
2023-05-22T12:06:37.370Z,26.50
2023-05-22T12:09:05.204Z,26.67
2023-05-22T12:11:35.278Z,26.82
2023-05-22T12:14:05.888Z,26.91
2023-05-22T12:16:36.909Z,26.94
2023-05-22T12:19:06.649Z,27.04
2023-05-22T12:21:34.169Z,27.15
2023-05-22T12:24:05.868Z,27.14
2023-05-22T12:26:33.729Z,27.14
2023-05-22T12:29:01.350Z,27.17
2023-05-22T12:31:28.797Z,27.25
2023-05-22T12:33:56.725Z,27.29
2023-05-22T12:36:53.542Z,27.26
2023-05-22T12:39:21.454Z,27.24
2023-05-22T12:41:48.852Z,27.24
2023-05-22T12:44:16.669Z,27.24
2023-05-22T12:46:44.077Z,27.23
2023-05-22T12:49:11.599Z,27.23
2023-05-22T12:51:39.066Z,27.29
2023-05-22T12:54:06.551Z,27.33
2023-05-22T12:56:34.036Z,27.37
2023-05-22T12:59:01.499Z,27.37
2023-05-22T13:01:29.054Z,27.37
2023-05-22T13:03:56.732Z,27.39
2023-05-22T13:06:24.365Z,27.41
2023-05-22T13:08:51.732Z,27.45
2023-05-22T13:11:20.252Z,27.52
2023-05-22T13:13:51.329Z,27.59
2023-05-22T13:16:19.526Z,27.61
2023-05-22T13:18:47.338Z,27.58
2023-05-22T13:21:14.968Z,27.56
2023-05-22T13:23:42.422Z,27.59
2023-05-22T13:26:09.988Z,27.74
2023-05-22T13:28:37.448Z,27.86
2023-05-22T13:31:04.879Z,27.88
2023-05-22T13:33:32.350Z,27.94
2023-05-22T13:35:59.825Z,28.06
2023-05-22T13:38:27.362Z,28.12
2023-05-22T13:40:54.929Z,28.10
2023-05-22T13:43:22.463Z,28.07
2023-05-22T13:45:50.128Z,28.05
2023-05-22T13:54:55.675Z,28.47
2023-05-22T13:57:45.092Z,29.38
2023-05-22T14:00:25.588Z,31.20
2023-05-22T14:03:09.997Z,33.05
2023-05-22T14:05:48.708Z,34.77
2023-05-22T14:08:39.603Z,36.08
2023-05-22T14:11:18.699Z,36.92
2023-05-22T14:13:52.802Z,37.53
2023-05-22T14:16:24.348Z,37.87
2023-05-22T14:19:11.380Z,38.06
2023-05-22T14:21:54.362Z,38.30
2023-05-22T14:24:38.075Z,38.61
2023-05-22T14:27:10.894Z,39.05
2023-05-22T14:29:58.028Z,39.29
2023-05-22T14:32:34.231Z,39.39
2023-05-22T14:35:07.073Z,39.61
2023-05-22T14:37:50.817Z,40.10
2023-05-22T14:40:34.443Z,40.91
2023-05-22T14:43:12.977Z,41.60
2023-05-22T14:46:19.573Z,42.11
2023-05-22T14:49:46.562Z,42.66
2023-05-22T14:52:49.142Z,43.13
2023-05-22T14:55:32.550Z,43.66
2023-05-22T14:58:32.431Z,43.96
2023-05-22T15:01:26.654Z,44.25
2023-05-22T16:33:46.273Z,31.66
2023-05-22T16:36:13.738Z,31.06
2023-05-22T16:38:42.083Z,30.47
2023-05-22T16:41:09.542Z,30.03
2023-05-22T16:43:38.533Z,29.62
2023-05-22T16:46:09.270Z,29.33
2023-05-22T16:48:36.777Z,29.02
2023-05-22T16:51:04.399Z,28.69
2023-05-22T16:53:31.800Z,28.38
2023-05-22T16:56:00.134Z,28.12
2023-05-22T16:58:27.571Z,27.85
2023-05-22T17:00:55.247Z,27.59
2023-05-22T17:03:22.996Z,27.34
2023-05-22T17:05:51.550Z,27.09
2023-05-22T17:08:18.993Z,26.80
2023-05-22T17:10:46.337Z,26.58
2023-05-22T17:13:20.855Z,26.42
2023-05-22T17:15:49.107Z,26.29
2023-05-22T17:18:19.796Z,26.18
2023-05-22T17:20:48.323Z,26.05
2023-05-22T17:23:16.186Z,25.88
2023-05-22T17:25:46.599Z,25.71
2023-05-22T17:28:17.665Z,25.56
2023-05-22T17:30:46.223Z,25.45
2023-05-22T17:33:14.257Z,25.34
2023-05-22T17:35:42.249Z,25.21
2023-05-22T17:38:10.265Z,25.09
2023-05-22T17:40:44.799Z,24.98
2023-05-22T17:43:12.778Z,24.87
2023-05-22T17:45:40.477Z,24.76
2023-05-22T17:48:08.267Z,24.64
2023-05-22T17:50:35.883Z,24.52
2023-05-22T17:53:03.491Z,24.40
2023-05-22T17:55:30.974Z,24.27
2023-05-22T17:57:59.126Z,24.14
2023-05-22T18:00:26.584Z,24.03
2023-05-22T18:02:54.211Z,23.92
2023-05-22T18:05:22.002Z,23.82
2023-05-22T18:07:49.577Z,23.73
2023-05-22T18:10:17.233Z,23.65
2023-05-22T18:12:44.751Z,23.57
2023-05-22T18:15:12.471Z,23.51
2023-05-22T18:17:41.466Z,23.45
2023-05-22T18:20:12.024Z,23.40
2023-05-22T18:22:39.832Z,23.33
2023-05-22T18:25:08.086Z,23.28
2023-05-22T18:27:36.198Z,23.25
2023-05-22T18:30:05.325Z,23.20
2023-05-22T18:32:32.939Z,23.12
2023-05-22T18:35:03.181Z,23.05
2023-05-22T18:37:31.001Z,22.99
2023-05-22T18:39:58.504Z,22.92
2023-05-22T18:42:25.915Z,22.85
2023-05-22T18:44:53.620Z,22.77
2023-05-22T18:47:20.949Z,22.69
2023-05-22T18:49:48.473Z,22.61
2023-05-22T18:52:15.965Z,22.54
2023-05-22T18:54:43.515Z,22.47
2023-05-22T18:57:11.116Z,22.38
2023-05-22T18:59:38.530Z,22.29
2023-05-22T19:02:06.008Z,22.20
2023-05-22T19:04:33.413Z,22.16
2023-05-22T19:07:00.866Z,22.12
2023-05-22T19:09:28.267Z,22.06
2023-05-22T19:11:56.076Z,22.00
2023-05-22T19:14:23.632Z,21.93
2023-05-22T19:16:51.075Z,21.87
2023-05-22T19:19:18.833Z,21.81
2023-05-22T19:21:46.517Z,21.76
2023-05-22T19:24:13.977Z,21.69
2023-05-22T19:26:41.642Z,21.61
2023-05-22T19:29:09.016Z,21.56
2023-05-22T19:31:36.683Z,21.50
2023-05-22T19:34:04.591Z,21.45
2023-05-22T19:36:32.844Z,21.41
2023-05-22T19:39:00.264Z,21.36
2023-05-22T19:41:28.051Z,21.30
2023-05-22T19:43:55.485Z,21.26
2023-05-22T19:46:23.052Z,21.19
2023-05-22T19:48:50.704Z,21.11
2023-05-22T19:51:18.163Z,21.03
2023-05-22T19:53:45.654Z,20.95
2023-05-22T19:56:13.185Z,20.86
2023-05-22T19:58:40.738Z,20.73
2023-05-22T20:01:08.144Z,20.65
2023-05-22T20:03:35.992Z,20.59
2023-05-22T20:06:05.021Z,20.54
2023-05-22T20:08:32.367Z,20.49
2023-05-22T20:10:59.811Z,20.43
2023-05-22T20:13:27.418Z,20.38
2023-05-22T20:15:54.901Z,20.33
2023-05-22T20:18:23.166Z,20.28
2023-05-22T20:20:50.574Z,20.23
2023-05-22T20:23:18.080Z,20.19
2023-05-22T20:25:45.618Z,20.16
2023-05-22T20:28:12.992Z,20.13
2023-05-22T20:30:40.566Z,20.10
2023-05-22T20:33:08.420Z,20.06
2023-05-22T20:35:37.426Z,20.04
2023-05-22T20:38:08.798Z,20.00
2023-05-22T20:40:37.113Z,19.99
2023-05-22T20:43:04.798Z,19.97
2023-05-22T20:45:32.495Z,19.95
2023-05-22T20:48:00.758Z,19.95
2023-05-22T20:50:28.366Z,19.96
2023-05-22T20:52:55.799Z,19.94
2023-05-22T20:55:23.337Z,19.90
2023-05-22T20:57:50.988Z,19.88
2023-05-22T21:00:19.287Z,19.83
2023-05-22T21:02:46.694Z,19.78
2023-05-22T21:05:14.098Z,19.73
2023-05-22T21:07:41.636Z,19.68
2023-05-22T21:10:09.579Z,19.64
2023-05-22T21:12:37.009Z,19.59
2023-05-22T21:15:05.247Z,19.56
2023-05-22T21:17:32.639Z,19.51
2023-05-22T21:19:59.971Z,19.47
2023-05-22T21:22:27.515Z,19.43
2023-05-22T21:24:54.972Z,19.40
2023-05-22T21:27:22.470Z,19.37
2023-05-22T21:29:50.093Z,19.34
2023-05-22T21:32:18.600Z,19.31
2023-05-22T21:34:46.808Z,19.27
2023-05-22T21:37:14.254Z,19.23
2023-05-22T21:39:41.816Z,19.21
2023-05-22T21:42:09.331Z,19.18
2023-05-22T21:44:37.710Z,19.15
2023-05-22T21:47:05.551Z,19.12
2023-05-22T21:49:33.442Z,19.09
2023-05-22T21:52:01.203Z,19.07
2023-05-22T21:54:28.790Z,19.06
2023-05-22T21:56:56.242Z,19.04
2023-05-22T21:59:23.798Z,18.99
2023-05-22T22:01:51.374Z,18.96
2023-05-22T22:04:19.018Z,18.94
2023-05-22T22:06:46.466Z,18.91
2023-05-22T22:09:13.922Z,18.88
2023-05-22T22:11:41.297Z,18.81
2023-05-22T22:14:08.742Z,18.76
2023-05-22T22:16:36.570Z,18.69
2023-05-22T22:19:04.484Z,18.67
2023-05-22T22:21:33.661Z,18.64
2023-05-22T22:24:01.444Z,18.58
2023-05-22T22:26:30.248Z,18.56
2023-05-22T22:28:58.092Z,18.56
2023-05-22T22:31:26.458Z,18.55
2023-05-22T22:33:54.133Z,18.54
2023-05-22T22:36:23.020Z,18.53
2023-05-22T22:38:50.713Z,18.52
2023-05-22T22:41:18.143Z,18.51
2023-05-22T22:43:45.604Z,18.51
2023-05-22T22:46:13.763Z,18.50
2023-05-22T22:48:42.078Z,18.48
2023-05-22T22:51:09.853Z,18.46
2023-05-22T22:53:37.457Z,18.42
2023-05-22T22:56:05.150Z,18.40
2023-05-22T22:58:32.631Z,18.38
2023-05-22T23:01:00.215Z,18.35
2023-05-22T23:03:27.820Z,18.32
2023-05-22T23:05:55.703Z,18.30
2023-05-22T23:08:23.479Z,18.29
2023-05-22T23:10:50.832Z,18.29
2023-05-22T23:13:18.387Z,18.28
2023-05-22T23:15:45.905Z,18.28
2023-05-22T23:18:14.052Z,18.29
2023-05-22T23:20:41.494Z,18.29
2023-05-22T23:23:08.874Z,18.27
2023-05-22T23:25:36.235Z,18.25
2023-05-22T23:28:03.691Z,18.21
2023-05-22T23:30:31.198Z,18.19
2023-05-22T23:32:58.678Z,18.18
2023-05-22T23:35:26.155Z,18.17
2023-05-22T23:37:53.601Z,18.14
2023-05-22T23:40:21.099Z,18.12
2023-05-22T23:42:48.517Z,18.11
2023-05-22T23:45:15.967Z,18.12
2023-05-22T23:47:43.383Z,18.12
2023-05-22T23:50:11.196Z,18.12
2023-05-22T23:52:38.616Z,18.10
2023-05-22T23:55:06.754Z,18.07
2023-05-22T23:57:34.189Z,18.04
